Hobart, Indiana
Current Conditions -  °F | °C
As of 4:45 PM on Tuesday 21 Oct 2014 (Local Time) from KGYY Reporting Station
Overcast Overcast  
Wind Chill: 52°   Ceiling: 2800
Heat Index: 52°   Visibility: 10mi
Dew Point: 41°   Wind: 13mph
Humidity: 67%   Direction: 10°N
Pressure: 30.19"   Gusts: 30mph
Location:  41.53°N, 87.25°W
Report Text: KGYY 212145Z 01011G26KT 10SM OVC028 11/05 A3019
Loading
Personal Weather Stations






























Interactive Weather Map
Tropical Storm Tracking
New forecast layout! Learn more

10-Day Weather Forecast

Advertisements
Track Severe Weather on mobile